Eships Agamid — ZDHS9 — position and weather

sailwx.info

Track history (hours):
 
Tides and Currents Weather Stations Pressure Air Temp Water Temp Dewpoint Dewpoint Depression Visibility Wind Speed Wind Dir Waves Ship Positions

Eships Agamid

Last reported at 2014-Sep-22 21:32 UTC. Time now 2014-Sep-22 22:14 UTC.
Position N 47°44' W 003°21'.

Length 128 m; draft 7.7 m.

Type: Tanker. MMSI: 236355000.

Date/timePositionNaut miles runAvg speedWind from/ knotsBaromVisibWave heightAir tempDewpointWater temp
2014-Sep-22 21:32N 47°44' W 003°21'0 0.5
2014-Sep-22 20:34N 47°43' W 003°22'5 5.4
2014-Sep-22 19:33N 47°40' W 003°29'5 4.9
2014-Sep-22 18:33N 47°40' W 003°36'  
2014-Sep-20 10:33N 48°20' W 004°35'6 5.6
2014-Sep-20 09:30N 48°23' W 004°27'0 0.0
2014-Sep-20 08:30N 48°23' W 004°27'0 0.0
2014-Sep-20 07:33N 48°23' W 004°27'0 0.0
2014-Sep-20 06:24N 48°23' W 004°27'0 0.0
2014-Sep-20 05:24N 48°23' W 004°27'0 0.1
2014-Sep-20 04:18N 48°23' W 004°27'0 0.1
2014-Sep-20 03:30N 48°23' W 004°27'0 0.0
2014-Sep-20 01:33N 48°23' W 004°27'0 0.0
2014-Sep-19 23:33N 48°23' W 004°27'0 0.0
2014-Sep-19 22:33N 48°23' W 004°27'0 0.0
2014-Sep-19 21:33N 48°23' W 004°27'0 0.0
2014-Sep-19 20:30N 48°23' W 004°27'0 0.0
2014-Sep-19 19:33N 48°23' W 004°27'0 0.0
2014-Sep-19 18:30N 48°23' W 004°27'0 0.0
2014-Sep-19 17:30N 48°23' W 004°27'0 0.0
2014-Sep-19 16:27N 48°23' W 004°27'0 0.0
2014-Sep-19 15:33N 48°23' W 004°27'0 0.2
2014-Sep-19 14:32N 48°23' W 004°27'0 0.0
2014-Sep-19 13:32N 48°23' W 004°27'0 0.0
2014-Sep-19 12:32N 48°23' W 004°27'0 0.0
2014-Sep-19 11:32N 48°23' W 004°27'0 0.0
2014-Sep-19 10:29N 48°23' W 004°27'0 0.0
2014-Sep-19 09:32N 48°23' W 004°27'0 0.0
2014-Sep-19 08:32N 48°23' W 004°27'0 0.0
2014-Sep-19 07:29N 48°23' W 004°27'0 0.0
2014-Sep-19 06:29N 48°23' W 004°27'0 0.0
2014-Sep-19 05:29N 48°23' W 004°27'0 0.0
2014-Sep-19 04:29N 48°23' W 004°27'0 0.0
2014-Sep-19 03:29N 48°23' W 004°27'0 0.0
2014-Sep-19 02:29N 48°23' W 004°27'0 0.0
2014-Sep-19 01:32N 48°23' W 004°27'0 0.0
2014-Sep-19 00:32N 48°23' W 004°27'0 0.0
2014-Sep-18 23:29N 48°23' W 004°27'0 0.0
2014-Sep-18 22:29N 48°23' W 004°27'0 0.0
2014-Sep-18 21:23N 48°23' W 004°27'0 0.0
2014-Sep-18 20:29N 48°23' W 004°27'0 0.0
2014-Sep-18 19:32N 48°23' W 004°27'0 0.0
2014-Sep-18 18:26N 48°23' W 004°27'0 0.0
2014-Sep-18 17:26N 48°23' W 004°27'0 0.0
2014-Sep-18 16:32N 48°23' W 004°27'0 0.0
2014-Sep-18 14:20N 48°23' W 004°27'0 0.0
2014-Sep-18 13:17N 48°23' W 004°27'0 0.6
2014-Sep-18 12:34N 48°23' W 004°27'8 8.4
2014-Sep-18 11:34N 48°19' W 004°39'1211.6
2014-Sep-18 10:33N 48°14' W 004°55'26 8.5
2014-Sep-18 07:30N 47°48' W 004°48'7313.5
2014-Sep-18 02:05N 47°09' W 003°18'2012.7
2014-Sep-18 00:32N 47°00' W 002°52'20 0.5
2014-Sep-16 09:11N 47°08' W 002°24'0 0.0
2014-Sep-16 08:05N 47°08' W 002°24'0 0.0
2014-Sep-16 05:29N 47°08' W 002°24'0 0.0
2014-Sep-16 04:29N 47°08' W 002°24'0 0.0
2014-Sep-16 01:14N 47°08' W 002°24'0 0.0
2014-Sep-15 23:23N 47°08' W 002°24'  
2014-Sep-13 12:33N 47°40' W 003°30'7 6.4
2014-Sep-13 11:31N 47°44' W 003°21'0 0.0
2014-Sep-13 10:31N 47°44' W 003°21'0 0.0
2014-Sep-13 09:31N 47°44' W 003°21'0 0.0
2014-Sep-13 08:31N 47°44' W 003°21'0 0.0
2014-Sep-13 07:31N 47°44' W 003°21'0 0.0
2014-Sep-13 06:31N 47°44' W 003°21'0 0.0
2014-Sep-13 05:31N 47°44' W 003°21'0 0.0
2014-Sep-13 04:31N 47°44' W 003°21'0 0.0
2014-Sep-13 03:31N 47°44' W 003°21'0 0.0
2014-Sep-13 02:31N 47°44' W 003°21'0 0.0
2014-Sep-13 01:31N 47°44' W 003°21'0 0.0
2014-Sep-13 00:31N 47°44' W 003°21'0 0.0
2014-Sep-12 23:31N 47°44' W 003°21'0 0.0
2014-Sep-12 22:31N 47°44' W 003°21'  
Track history (hours):
 
Tides and Currents Weather Stations Pressure Air Temp Water Temp Dewpoint Dewpoint Depression Visibility Wind Speed Wind Dir Waves Ship Positions

Eships Agamid

Last reported at 2014-Sep-22 21:32 UTC. Time now 2014-Sep-22 22:14 UTC.
Position N 47°44' W 003°21'.

Length 128 m; draft 7.7 m.

Type: Tanker. MMSI: 236355000.

Date/timePositionNaut miles runAvg speedWind from/ knotsBaromVisibWave heightAir tempDewpointWater temp
2014-Sep-22 21:32N 47°44' W 003°21'0 0.5
2014-Sep-22 20:34N 47°43' W 003°22'5 5.4
2014-Sep-22 19:33N 47°40' W 003°29'5 4.9
2014-Sep-22 18:33N 47°40' W 003°36'  
2014-Sep-20 10:33N 48°20' W 004°35'6 5.6
2014-Sep-20 09:30N 48°23' W 004°27'0 0.0
2014-Sep-20 08:30N 48°23' W 004°27'0 0.0
2014-Sep-20 07:33N 48°23' W 004°27'0 0.0
2014-Sep-20 06:24N 48°23' W 004°27'0 0.0
2014-Sep-20 05:24N 48°23' W 004°27'0 0.1
2014-Sep-20 04:18N 48°23' W 004°27'0 0.1
2014-Sep-20 03:30N 48°23' W 004°27'0 0.0
2014-Sep-20 01:33N 48°23' W 004°27'0 0.0
2014-Sep-19 23:33N 48°23' W 004°27'0 0.0
2014-Sep-19 22:33N 48°23' W 004°27'0 0.0
2014-Sep-19 21:33N 48°23' W 004°27'0 0.0
2014-Sep-19 20:30N 48°23' W 004°27'0 0.0
2014-Sep-19 19:33N 48°23' W 004°27'0 0.0
2014-Sep-19 18:30N 48°23' W 004°27'0 0.0
2014-Sep-19 17:30N 48°23' W 004°27'0 0.0
2014-Sep-19 16:27N 48°23' W 004°27'0 0.0
2014-Sep-19 15:33N 48°23' W 004°27'0 0.2
2014-Sep-19 14:32N 48°23' W 004°27'0 0.0
2014-Sep-19 13:32N 48°23' W 004°27'0 0.0
2014-Sep-19 12:32N 48°23' W 004°27'0 0.0
2014-Sep-19 11:32N 48°23' W 004°27'0 0.0
2014-Sep-19 10:29N 48°23' W 004°27'0 0.0
2014-Sep-19 09:32N 48°23' W 004°27'0 0.0
2014-Sep-19 08:32N 48°23' W 004°27'0 0.0
2014-Sep-19 07:29N 48°23' W 004°27'0 0.0
2014-Sep-19 06:29N 48°23' W 004°27'0 0.0
2014-Sep-19 05:29N 48°23' W 004°27'0 0.0
2014-Sep-19 04:29N 48°23' W 004°27'0 0.0
2014-Sep-19 03:29N 48°23' W 004°27'0 0.0
2014-Sep-19 02:29N 48°23' W 004°27'0 0.0
2014-Sep-19 01:32N 48°23' W 004°27'0 0.0
2014-Sep-19 00:32N 48°23' W 004°27'0 0.0
2014-Sep-18 23:29N 48°23' W 004°27'0 0.0
2014-Sep-18 22:29N 48°23' W 004°27'0 0.0
2014-Sep-18 21:23N 48°23' W 004°27'0 0.0
2014-Sep-18 20:29N 48°23' W 004°27'0 0.0
2014-Sep-18 19:32N 48°23' W 004°27'0 0.0
2014-Sep-18 18:26N 48°23' W 004°27'0 0.0
2014-Sep-18 17:26N 48°23' W 004°27'0 0.0
2014-Sep-18 16:32N 48°23' W 004°27'0 0.0
2014-Sep-18 14:20N 48°23' W 004°27'0 0.0
2014-Sep-18 13:17N 48°23' W 004°27'0 0.6
2014-Sep-18 12:34N 48°23' W 004°27'8 8.4
2014-Sep-18 11:34N 48°19' W 004°39'1211.6
2014-Sep-18 10:33N 48°14' W 004°55'26 8.5
2014-Sep-18 07:30N 47°48' W 004°48'7313.5
2014-Sep-18 02:05N 47°09' W 003°18'2012.7
2014-Sep-18 00:32N 47°00' W 002°52'20 0.5
2014-Sep-16 09:11N 47°08' W 002°24'0 0.0
2014-Sep-16 08:05N 47°08' W 002°24'0 0.0
2014-Sep-16 05:29N 47°08' W 002°24'0 0.0
2014-Sep-16 04:29N 47°08' W 002°24'0 0.0
2014-Sep-16 01:14N 47°08' W 002°24'0 0.0
2014-Sep-15 23:23N 47°08' W 002°24'  
2014-Sep-13 12:33N 47°40' W 003°30'7 6.4
2014-Sep-13 11:31N 47°44' W 003°21'0 0.0
2014-Sep-13 10:31N 47°44' W 003°21'0 0.0
2014-Sep-13 09:31N 47°44' W 003°21'0 0.0
2014-Sep-13 08:31N 47°44' W 003°21'0 0.0
2014-Sep-13 07:31N 47°44' W 003°21'0 0.0
2014-Sep-13 06:31N 47°44' W 003°21'0 0.0
2014-Sep-13 05:31N 47°44' W 003°21'0 0.0
2014-Sep-13 04:31N 47°44' W 003°21'0 0.0
2014-Sep-13 03:31N 47°44' W 003°21'0 0.0
2014-Sep-13 02:31N 47°44' W 003°21'0 0.0
2014-Sep-13 01:31N 47°44' W 003°21'0 0.0
2014-Sep-13 00:31N 47°44' W 003°21'0 0.0
2014-Sep-12 23:31N 47°44' W 003°21'0 0.0
2014-Sep-12 22:31N 47°44' W 003°21'  

Dump ship's entire track history